createdAt,value
2022-08-26T00:04:50.234Z,99655.63
2022-08-26T00:09:41.973Z,99664.28
2022-08-26T00:14:38.989Z,99666.09
2022-08-26T00:19:30.686Z,99665.13
2022-08-26T00:24:22.426Z,99665.13
2022-08-26T00:29:15.669Z,99670.00
2022-08-26T00:34:09.424Z,99666.19
2022-08-26T00:39:01.851Z,99669.88
2022-08-26T00:43:53.558Z,99670.59
2022-08-26T00:48:49.507Z,99663.59
2022-08-26T00:53:48.038Z,99673.81
2022-08-26T00:58:43.107Z,99679.38
2022-08-26T01:03:37.081Z,99666.06
2022-08-26T01:08:28.828Z,99673.66
2022-08-26T01:13:21.284Z,99673.06
2022-08-26T01:18:14.650Z,99674.97
2022-08-26T01:23:09.447Z,99674.97
2022-08-26T01:28:05.939Z,99683.13
2022-08-26T01:33:01.487Z,99677.91
2022-08-26T01:37:55.972Z,99672.47
2022-08-26T01:42:49.237Z,99684.66
2022-08-26T01:47:43.117Z,99681.13
2022-08-26T01:52:39.595Z,99680.88
2022-08-26T01:57:32.357Z,99679.22
2022-08-26T02:02:24.697Z,99678.88
2022-08-26T02:07:20.617Z,99682.78
2022-08-26T02:12:17.152Z,99685.28
2022-08-26T02:17:10.673Z,99684.19
2022-08-26T02:22:06.170Z,99677.44
2022-08-26T02:26:58.465Z,99681.59
2022-08-26T02:31:51.986Z,99683.84
2022-08-26T02:36:44.381Z,99678.16
2022-08-26T02:41:44.105Z,99676.25
2022-08-26T02:46:38.068Z,99684.44
2022-08-26T02:51:31.690Z,99679.81
2022-08-26T02:56:25.026Z,99678.53
2022-08-26T03:01:32.595Z,99665.03
2022-08-26T03:06:24.831Z,99664.56
2022-08-26T03:11:18.707Z,99668.13
2022-08-26T03:16:10.894Z,99660.44
2022-08-26T03:21:12.393Z,99654.13
2022-08-26T03:26:05.187Z,99660.44
2022-08-26T03:30:57.966Z,99667.50
2022-08-26T03:35:50.632Z,99656.63
2022-08-26T03:40:43.779Z,99647.03
2022-08-26T03:45:36.753Z,99645.84
2022-08-26T03:50:29.160Z,99645.72
2022-08-26T03:55:23.610Z,99635.78
2022-08-26T04:00:24.460Z,99641.94
2022-08-26T04:05:18.309Z,99644.50
2022-08-26T04:10:17.130Z,99639.53
2022-08-26T04:15:15.635Z,99639.19
2022-08-26T04:20:08.653Z,99638.00
2022-08-26T04:25:00.982Z,99644.88
2022-08-26T04:29:55.277Z,99636.72
2022-08-26T04:34:47.458Z,99636.22
2022-08-26T04:39:39.162Z,99630.31
2022-08-26T04:44:31.009Z,99637.31
2022-08-26T04:49:22.623Z,99639.31
2022-08-26T04:54:14.671Z,99636.34
2022-08-26T04:59:16.842Z,99625.81
2022-08-26T05:04:08.881Z,99623.69
2022-08-26T05:09:00.540Z,99631.19
2022-08-26T05:13:54.119Z,99626.88
2022-08-26T05:18:46.280Z,99622.53
2022-08-26T05:23:37.953Z,99625.59
2022-08-26T05:28:30.038Z,99619.19
2022-08-26T05:33:22.470Z,99624.41
2022-08-26T05:38:19.772Z,99632.91
2022-08-26T05:43:13.335Z,99627.84
2022-08-26T05:48:09.385Z,99631.97
2022-08-26T05:53:01.176Z,99629.00
2022-08-26T05:57:53.714Z,99639.41
2022-08-26T06:02:48.471Z,99631.47
2022-08-26T06:07:58.795Z,99635.06
2022-08-26T06:12:50.530Z,99645.22
2022-08-26T06:17:43.394Z,99643.56
2022-08-26T06:22:53.662Z,99645.16
2022-08-26T06:27:45.321Z,99651.41
2022-08-26T06:32:36.953Z,99656.47
2022-08-26T06:37:28.656Z,99646.34
2022-08-26T06:42:20.757Z,99649.13
2022-08-26T06:47:12.347Z,99651.56
2022-08-26T06:52:04.227Z,99656.28
2022-08-26T06:56:57.198Z,99650.69
2022-08-26T07:01:49.727Z,99647.72
2022-08-26T07:06:43.114Z,99658.50
2022-08-26T07:11:37.446Z,99662.97
2022-08-26T07:16:29.940Z,99663.59
2022-08-26T07:21:23.267Z,99665.09
2022-08-26T07:26:22.229Z,99681.50
2022-08-26T07:31:17.814Z,99674.38
2022-08-26T07:36:12.245Z,99672.63
2022-08-26T07:41:03.960Z,99675.75
2022-08-26T07:45:56.094Z,99661.56
2022-08-26T07:50:49.999Z,99665.25
2022-08-26T07:55:43.119Z,99661.03
2022-08-26T08:00:35.131Z,99662.63
2022-08-26T08:05:27.588Z,99665.34
2022-08-26T08:10:27.516Z,99663.94
2022-08-26T08:15:24.983Z,99668.00
2022-08-26T08:20:17.241Z,99665.06
2022-08-26T08:25:10.517Z,99654.44
2022-08-26T08:30:04.024Z,99656.78
2022-08-26T08:34:57.581Z,99656.75
2022-08-26T08:39:49.901Z,99657.66
2022-08-26T08:44:52.067Z,99657.56
2022-08-26T08:49:45.831Z,99659.09
2022-08-26T08:54:37.528Z,99656.13
2022-08-26T08:59:35.265Z,99655.69
2022-08-26T09:05:00.875Z,99649.84
2022-08-26T09:10:03.445Z,99656.97
2022-08-26T09:15:04.881Z,99644.56
2022-08-26T09:20:10.987Z,99647.53
2022-08-26T09:25:12.209Z,99646.72
2022-08-26T09:30:04.846Z,99641.41
2022-08-26T09:35:04.182Z,99643.72
2022-08-26T09:40:13.071Z,99632.19
2022-08-26T09:45:10.649Z,99628.28
2022-08-26T09:50:23.610Z,99627.03
2022-08-26T09:55:23.742Z,99627.41
2022-08-26T10:00:30.279Z,99624.25
2022-08-26T10:05:40.614Z,99622.13
2022-08-26T10:10:40.822Z,99625.56
2022-08-26T10:15:49.988Z,99619.50
2022-08-26T10:20:54.164Z,99622.16
2022-08-26T10:25:53.670Z,99622.56
2022-08-26T10:30:58.454Z,99621.81
2022-08-26T10:35:53.898Z,99631.13
2022-08-26T10:40:49.982Z,99620.63
2022-08-26T10:45:53.498Z,99617.06
2022-08-26T10:50:47.633Z,99616.91
2022-08-26T10:55:42.620Z,99599.22
2022-08-26T11:01:10.552Z,99598.34
2022-08-26T11:06:23.859Z,99595.81
2022-08-26T11:11:51.284Z,99589.97
2022-08-26T11:16:45.239Z,99588.00
2022-08-26T11:22:06.499Z,99589.28
2022-08-26T11:26:58.152Z,99583.00
2022-08-26T11:31:50.408Z,99587.97
2022-08-26T11:36:42.145Z,99586.66
2022-08-26T11:41:34.559Z,99579.56
2022-08-26T11:46:30.573Z,99590.56
2022-08-26T11:51:24.798Z,99591.38
2022-08-26T11:56:37.609Z,99591.78
2022-08-26T12:01:38.906Z,99590.47
2022-08-26T12:06:51.986Z,99586.19
2022-08-26T12:11:45.014Z,99593.16
2022-08-26T12:16:39.993Z,99589.03
2022-08-26T12:21:34.806Z,99595.06
2022-08-26T12:26:36.065Z,99588.00
2022-08-26T12:31:32.812Z,99584.75
2022-08-26T12:36:35.770Z,99582.16
2022-08-26T12:41:53.689Z,99593.50
2022-08-26T12:46:49.160Z,99584.75
2022-08-26T12:51:50.022Z,99594.50
2022-08-26T12:56:41.721Z,99589.72
2022-08-26T13:01:40.309Z,99595.72
2022-08-26T13:06:32.667Z,99587.66
2022-08-26T13:11:30.562Z,99592.09
2022-08-26T13:16:23.375Z,99575.91
2022-08-26T13:21:21.080Z,99581.28
2022-08-26T13:26:12.908Z,99572.25
2022-08-26T13:31:05.089Z,99576.84
2022-08-26T13:35:57.507Z,99580.72
2022-08-26T13:40:49.221Z,99565.84
2022-08-26T13:45:40.914Z,99562.09
2022-08-26T13:50:33.835Z,99556.56
2022-08-26T13:55:27.780Z,99559.69
2022-08-26T14:00:20.473Z,99552.38
2022-08-26T14:05:13.437Z,99544.97
2022-08-26T14:10:05.349Z,99541.72
2022-08-26T14:14:57.082Z,99537.28
2022-08-26T14:19:50.389Z,99535.91
2022-08-26T14:24:42.024Z,99530.31
2022-08-26T14:29:33.656Z,99534.16
2022-08-26T14:34:28.657Z,99528.56
2022-08-26T14:39:20.269Z,99525.03
2022-08-26T14:44:15.013Z,99521.06
2022-08-26T14:49:10.336Z,99515.19
2022-08-26T14:54:14.637Z,99512.44
2022-08-26T14:59:07.216Z,99508.78
2022-08-26T15:04:01.223Z,99505.28
2022-08-26T15:08:53.451Z,99494.22
2022-08-26T15:13:45.933Z,99497.34
2022-08-26T15:18:37.670Z,99481.63
2022-08-26T15:23:29.660Z,99487.38
2022-08-26T15:28:22.321Z,99493.25
2022-08-26T15:33:15.172Z,99498.28
2022-08-26T15:38:07.849Z,99493.69
2022-08-26T15:43:17.715Z,99493.69
2022-08-26T15:48:09.990Z,99495.41
2022-08-26T15:53:01.689Z,99481.66
2022-08-26T15:57:53.501Z,99483.50
2022-08-26T16:02:45.175Z,99483.50
2022-08-26T16:07:37.028Z,99480.50
2022-08-26T16:12:28.747Z,99476.84
2022-08-26T16:17:20.851Z,99474.69
2022-08-26T16:22:12.772Z,99476.94
2022-08-26T16:27:04.555Z,99473.66
2022-08-26T16:31:56.255Z,99465.09
2022-08-26T16:36:48.171Z,99462.09
2022-08-26T16:41:39.920Z,99468.66
2022-08-26T16:46:33.933Z,99460.13
2022-08-26T16:51:27.674Z,99463.97
2022-08-26T16:56:22.980Z,99458.16
2022-08-26T17:01:19.728Z,99457.16
2022-08-26T17:06:11.499Z,99460.97
2022-08-26T17:11:03.147Z,99464.03
2022-08-26T17:15:58.478Z,99474.50
2022-08-26T17:20:51.995Z,99470.19
2022-08-26T17:25:43.933Z,99469.25
2022-08-26T17:30:35.689Z,99462.97
2022-08-26T17:35:27.418Z,99457.06
2022-08-26T17:40:22.556Z,99459.09
2022-08-26T17:45:15.062Z,99454.59
2022-08-26T17:50:09.955Z,99464.44
2022-08-26T17:55:01.798Z,99468.31
2022-08-26T17:59:53.936Z,99454.91
2022-08-26T18:04:45.779Z,99461.97
2022-08-26T18:09:37.417Z,99471.25
2022-08-26T18:14:29.851Z,99468.09
2022-08-26T18:19:21.502Z,99462.94
2022-08-26T18:24:14.355Z,99472.97
2022-08-26T18:29:07.999Z,99468.06
2022-08-26T18:34:01.953Z,99457.06
2022-08-26T18:38:54.632Z,99460.97
2022-08-26T18:43:47.326Z,99472.41
2022-08-26T18:48:40.835Z,99468.34
2022-08-26T18:53:33.749Z,99468.75
2022-08-26T18:58:26.133Z,99475.69
2022-08-26T19:03:19.143Z,99476.47
2022-08-26T19:08:11.168Z,99478.25
2022-08-26T19:13:03.118Z,99480.06
2022-08-26T19:17:58.450Z,99482.44
2022-08-26T19:22:50.512Z,99483.97
2022-08-26T19:27:42.124Z,99489.06
2022-08-26T19:32:33.861Z,99498.78
2022-08-26T19:37:25.527Z,99506.66
2022-08-26T19:42:17.384Z,99526.59
2022-08-26T19:47:10.926Z,99522.84
2022-08-26T19:52:03.157Z,99537.88
2022-08-26T19:56:54.800Z,99540.28
2022-08-26T20:01:47.101Z,99555.28
2022-08-26T20:06:53.740Z,99545.81
2022-08-26T20:11:50.152Z,99568.53
2022-08-26T20:16:42.392Z,99565.34
2022-08-26T20:21:38.257Z,99570.91
2022-08-26T20:26:32.972Z,99580.09
2022-08-26T20:31:25.986Z,99577.91
2022-08-26T20:36:20.559Z,99586.47
2022-08-26T20:41:13.272Z,99584.56
2022-08-26T20:46:08.271Z,99587.38
2022-08-26T20:51:05.659Z,99593.47
2022-08-26T20:56:02.051Z,99603.13
2022-08-26T21:00:54.071Z,99594.63
2022-08-26T21:05:45.719Z,99593.50
2022-08-26T21:10:37.809Z,99603.66
2022-08-26T21:15:29.716Z,99609.97
2022-08-26T21:20:24.123Z,99618.19
2022-08-26T21:25:16.050Z,99614.59
2022-08-26T21:30:08.701Z,99618.44
2022-08-26T21:35:00.493Z,99629.94
2022-08-26T21:39:56.897Z,99626.91
2022-08-26T21:44:52.636Z,99624.41
2022-08-26T21:49:44.666Z,99629.31
2022-08-26T21:54:36.388Z,99631.72
2022-08-26T21:59:28.078Z,99637.72
2022-08-26T22:04:20.114Z,99643.19
2022-08-26T22:09:13.153Z,99634.09
2022-08-26T22:14:04.937Z,99636.22
2022-08-26T22:18:56.657Z,99637.28
2022-08-26T22:23:48.359Z,99636.13
2022-08-26T22:28:40.040Z,99624.88
2022-08-26T22:33:32.214Z,99637.47
2022-08-26T22:38:24.030Z,99628.25
2022-08-26T22:43:16.475Z,99629.00
2022-08-26T22:48:09.466Z,99634.41
2022-08-26T22:53:01.674Z,99633.34
2022-08-26T22:57:53.331Z,99640.22
2022-08-26T23:02:45.039Z,99647.06
2022-08-26T23:07:37.049Z,99658.03
2022-08-26T23:12:28.775Z,99656.94
2022-08-26T23:17:21.450Z,99648.75
2022-08-26T23:22:13.169Z,99660.25
2022-08-26T23:27:05.093Z,99658.47
2022-08-26T23:31:56.829Z,99654.84
2022-08-26T23:36:48.504Z,99660.03
2022-08-26T23:41:40.276Z,99651.81
2022-08-26T23:46:35.552Z,99657.84
2022-08-26T23:51:46.134Z,99655.34
2022-08-26T23:56:40.408Z,99653.88
